Time;durP1;ratioP1;P1;durP2;ratioP2;P2;SDS_P1;SDS_P2;PMS_P1;PMS_P2;Temp;Humidity;BMP_temperature;BMP_pressure;BME280_temperature;BME280_humidity;BME280_pressure;Samples;Min_cycle;Max_cycle;Signal;HPM_P1;HPM_P2
2021/09/17 00:01:47;;;;;;;7.32;5.72;;;12.50;97.40;;;;;;5012059;28;20021;-67
2021/09/17 00:04:13;;;;;;;6.65;5.50;;;12.50;97.40;;;;;;5011168;28;20030;-67
2021/09/17 00:06:39;;;;;;;6.60;5.38;;;12.50;97.30;;;;;;5012096;28;20037;-67
2021/09/17 00:09:04;;;;;;;6.03;5.38;;;12.50;97.30;;;;;;5012198;28;20434;-67
2021/09/17 00:11:30;;;;;;;5.85;5.15;;;12.50;97.40;;;;;;4994378;28;20022;-67
2021/09/17 00:13:55;;;;;;;7.82;6.45;;;12.50;97.50;;;;;;5010959;28;20044;-67
2021/09/17 00:16:21;;;;;;;6.55;5.72;;;12.50;97.40;;;;;;5012076;28;20121;-67
2021/09/17 00:18:47;;;;;;;12.07;5.78;;;12.50;97.30;;;;;;5011866;28;20029;-67
2021/09/17 00:21:12;;;;;;;7.25;5.60;;;12.50;97.40;;;;;;5011849;28;20470;-66
2021/09/17 00:23:40;;;;;;;5.60;5.03;;;12.50;97.40;;;;;;5010595;28;20470;-67
2021/09/17 00:26:06;;;;;;;5.80;4.93;;;12.50;97.50;;;;;;5006259;28;20207;-67
2021/09/17 00:28:32;;;;;;;7.18;5.60;;;12.50;97.50;;;;;;5009393;28;20072;-67
2021/09/17 00:30:57;;;;;;;6.47;5.68;;;12.50;97.50;;;;;;5010618;28;20021;-67
2021/09/17 00:33:23;;;;;;;7.60;5.30;;;12.50;97.50;;;;;;5011184;28;20030;-67
2021/09/17 00:35:49;;;;;;;6.55;5.90;;;12.50;97.60;;;;;;5011578;28;20113;-67
2021/09/17 00:38:14;;;;;;;8.75;6.13;;;12.50;97.40;;;;;;5010676;28;20061;-67
2021/09/17 00:40:40;;;;;;;9.00;6.15;;;12.50;97.40;;;;;;5011232;28;20436;-67
2021/09/17 00:43:05;;;;;;;7.93;6.47;;;12.40;97.40;;;;;;5011006;28;20018;-67
2021/09/17 00:45:31;;;;;;;8.48;5.68;;;12.40;97.30;;;;;;5011353;28;20140;-67
2021/09/17 00:47:57;;;;;;;9.57;6.93;;;12.30;97.40;;;;;;5011339;28;20080;-67
2021/09/17 00:50:22;;;;;;;7.82;6.63;;;12.30;97.40;;;;;;5011277;28;20079;-67
2021/09/17 00:52:49;;;;;;;7.18;6.38;;;12.20;97.40;;;;;;5010731;28;20076;-68
2021/09/17 00:55:15;;;;;;;8.45;6.90;;;12.20;97.50;;;;;;5011120;28;20150;-67
2021/09/17 00:57:41;;;;;;;8.30;6.70;;;12.30;97.60;;;;;;5010950;28;20037;-67
2021/09/17 01:00:10;;;;;;;8.65;6.53;;;12.20;97.50;;;;;;5011226;28;20459;-67
2021/09/17 01:02:36;;;;;;;8.95;6.90;;;12.20;97.60;;;;;;5010640;28;20021;-67
2021/09/17 01:05:04;;;;;;;7.15;6.45;;;12.20;97.60;;;;;;5010397;28;20022;-67
2021/09/17 01:07:30;;;;;;;8.05;6.53;;;12.10;97.60;;;;;;4993386;28;20054;-67
2021/09/17 01:09:57;;;;;;;9.48;7.00;;;12.20;97.60;;;;;;5010998;28;20018;-67
2021/09/17 01:12:22;;;;;;;7.68;6.57;;;12.20;97.70;;;;;;5011188;28;20088;-66
2021/09/17 01:14:49;;;;;;;10.52;7.75;;;12.20;97.80;;;;;;4992655;28;20030;-67
2021/09/17 01:17:17;;;;;;;9.43;6.53;;;12.20;97.80;;;;;;5010876;28;20037;-67
2021/09/17 01:19:43;;;;;;;8.50;7.18;;;12.20;97.90;;;;;;4992516;28;20022;-67
2021/09/17 01:22:09;;;;;;;10.00;7.82;;;12.30;97.90;;;;;;5010891;28;20034;-67
2021/09/17 01:24:36;;;;;;;9.95;7.72;;;12.30;97.80;;;;;;5010219;28;20026;-67
2021/09/17 01:27:02;;;;;;;9.27;7.20;;;12.30;97.70;;;;;;4997801;28;20027;-67
2021/09/17 01:29:28;;;;;;;10.48;7.63;;;12.30;97.70;;;;;;4990640;28;20073;-67
2021/09/17 01:31:54;;;;;;;10.32;7.13;;;12.20;97.70;;;;;;4991526;28;20478;-67
2021/09/17 01:34:21;;;;;;;11.95;7.82;;;12.20;97.70;;;;;;4992500;28;20084;-67
2021/09/17 01:36:48;;;;;;;9.80;7.80;;;12.20;97.80;;;;;;4992718;28;20087;-67
2021/09/17 01:39:15;;;;;;;11.30;8.40;;;12.20;97.80;;;;;;5009030;28;20434;-67
2021/09/17 01:41:41;;;;;;;11.50;7.82;;;12.20;97.80;;;;;;5010656;28;20105;-67
2021/09/17 01:44:07;;;;;;;11.48;8.70;;;12.20;97.80;;;;;;4992304;28;20125;-67
2021/09/17 01:46:33;;;;;;;14.82;8.38;;;12.20;97.90;;;;;;5009657;28;20026;-67
2021/09/17 01:48:58;;;;;;;10.07;8.15;;;12.20;97.90;;;;;;5010604;28;20379;-67
2021/09/17 01:51:24;;;;;;;14.77;9.27;;;12.20;97.90;;;;;;5010120;28;20030;-67
2021/09/17 01:53:51;;;;;;;11.48;8.95;;;12.20;97.90;;;;;;5010229;28;20113;-67
2021/09/17 01:56:17;;;;;;;11.07;8.02;;;12.20;97.80;;;;;;5010436;28;20032;-67
2021/09/17 01:58:43;;;;;;;11.10;8.65;;;12.20;97.80;;;;;;5010473;28;20022;-67
2021/09/17 02:01:08;;;;;;;12.07;9.23;;;12.20;97.90;;;;;;5009667;28;20428;-67
2021/09/17 02:03:34;;;;;;;11.85;8.38;;;12.20;97.90;;;;;;5009409;28;20037;-67
2021/09/17 02:06:00;;;;;;;11.55;8.35;;;12.20;97.90;;;;;;5010005;28;20021;-67
2021/09/17 02:08:25;;;;;;;13.20;8.40;;;12.20;98.00;;;;;;4992767;28;20022;-67
2021/09/17 02:10:51;;;;;;;16.15;8.68;;;12.20;98.10;;;;;;5010280;28;20034;-66
2021/09/17 02:13:19;;;;;;;12.48;8.43;;;12.20;98.10;;;;;;5009649;28;20541;-67
2021/09/17 02:15:51;;;;;;;11.07;7.85;;;12.20;98.10;;;;;;5010170;28;20033;-67
2021/09/17 02:18:17;;;;;;;11.48;8.27;;;12.20;98.00;;;;;;5010610;28;20026;-67
2021/09/17 02:20:43;;;;;;;14.93;9.02;;;12.20;98.00;;;;;;5010139;28;20458;-70
2021/09/17 02:23:09;;;;;;;15.90;9.50;;;12.20;98.00;;;;;;5009787;28;20113;-66
2021/09/17 02:25:35;;;;;;;11.75;8.20;;;12.20;98.00;;;;;;5009285;28;20064;-66
2021/09/17 02:28:01;;;;;;;12.50;9.13;;;12.20;98.10;;;;;;4986602;28;20025;-67
2021/09/17 02:30:27;;;;;;;13.27;8.95;;;12.20;98.10;;;;;;4992286;28;20129;-67
2021/09/17 02:32:52;;;;;;;12.40;8.90;;;12.20;98.10;;;;;;5009505;28;20026;-67
2021/09/17 02:35:18;;;;;;;13.00;8.20;;;12.20;98.10;;;;;;4992214;28;20025;-67
2021/09/17 02:37:43;;;;;;;15.18;8.40;;;12.20;98.20;;;;;;5009903;28;20053;-67
2021/09/17 02:40:12;;;;;;;12.85;9.13;;;12.20;98.30;;;;;;5009973;28;20025;-67
2021/09/17 02:42:38;;;;;;;13.90;8.70;;;12.30;98.30;;;;;;5009052;28;20026;-67
2021/09/17 02:45:06;;;;;;;12.88;8.45;;;12.30;98.30;;;;;;5092896;22;20062;-70
2021/09/17 02:47:31;;;;;;;13.70;9.25;;;12.30;98.30;;;;;;5029511;28;20025;-70
2021/09/17 02:49:57;;;;;;;11.48;8.70;;;12.40;98.30;;;;;;5028418;28;20620;-69
2021/09/17 02:52:24;;;;;;;14.25;8.02;;;12.40;98.30;;;;;;5029694;28;20021;-68
2021/09/17 02:54:50;;;;;;;12.18;7.65;;;12.40;98.20;;;;;;5029276;28;20022;-69
2021/09/17 02:57:16;;;;;;;10.45;8.05;;;12.40;98.30;;;;;;5029760;28;20414;-70
2021/09/17 02:59:41;;;;;;;10.20;7.78;;;12.40;98.30;;;;;;5029327;28;20097;-71
2021/09/17 03:02:07;;;;;;;9.77;7.85;;;12.40;98.40;;;;;;5032736;28;20029;-68
2021/09/17 03:04:33;;;;;;;11.55;7.70;;;12.50;98.40;;;;;;5032727;28;20021;-69
2021/09/17 03:06:59;;;;;;;12.48;8.30;;;12.50;98.40;;;;;;5032945;28;20504;-69
2021/09/17 03:09:24;;;;;;;15.55;8.73;;;12.50;98.40;;;;;;5032979;28;20030;-70
2021/09/17 03:11:50;;;;;;;10.25;7.53;;;12.50;98.40;;;;;;5015580;28;20107;-70
2021/09/17 03:14:16;;;;;;;13.38;8.30;;;12.50;98.40;;;;;;5032247;28;20021;-70
2021/09/17 03:16:42;;;;;;;12.23;8.25;;;12.50;98.40;;;;;;5032741;28;20028;-69
2021/09/17 03:19:07;;;;;;;11.95;7.43;;;12.50;98.40;;;;;;5032844;28;20029;-68
2021/09/17 03:21:33;;;;;;;10.93;7.40;;;12.50;98.40;;;;;;5032869;28;20496;-68
2021/09/17 03:23:58;;;;;;;10.07;7.45;;;12.50;98.40;;;;;;5032626;28;20064;-69
2021/09/17 03:26:24;;;;;;;10.30;7.47;;;12.50;98.40;;;;;;5032612;28;20033;-68
2021/09/17 03:28:50;;;;;;;12.50;8.27;;;12.50;98.30;;;;;;5019381;28;20018;-68
2021/09/17 03:31:15;;;;;;;10.48;8.00;;;12.50;98.40;;;;;;5015309;28;20034;-69
2021/09/17 03:33:41;;;;;;;10.70;8.07;;;12.50;98.40;;;;;;5032430;28;20033;-68
2021/09/17 03:36:06;;;;;;;10.93;8.35;;;12.50;98.40;;;;;;5032417;28;20037;-70
2021/09/17 03:38:32;;;;;;;12.52;8.23;;;12.50;98.40;;;;;;5032592;28;20021;-69
2021/09/17 03:40:58;;;;;;;11.77;8.45;;;12.50;98.40;;;;;;5032480;28;20127;-69
2021/09/17 03:43:23;;;;;;;12.27;8.48;;;12.50;98.40;;;;;;5031892;28;20143;-69
2021/09/17 03:45:49;;;;;;;13.07;8.32;;;12.50;98.40;;;;;;5031998;28;20493;-71
2021/09/17 03:48:15;;;;;;;14.00;8.68;;;12.50;98.40;;;;;;5032502;28;20409;-69
2021/09/17 03:50:41;;;;;;;12.48;8.35;;;12.40;98.40;;;;;;5032092;28;20093;-69
2021/09/17 03:53:07;;;;;;;12.95;8.80;;;12.40;98.40;;;;;;5032115;28;20028;-69
2021/09/17 03:55:34;;;;;;;10.30;7.72;;;12.40;98.50;;;;;;5032391;28;20051;-68
2021/09/17 03:58:01;;;;;;;14.55;9.38;;;12.40;98.50;;;;;;5031924;28;20116;-70
2021/09/17 04:00:26;;;;;;;13.98;8.48;;;12.40;98.60;;;;;;5031931;28;20033;-69
2021/09/17 04:02:52;;;;;;;11.85;8.10;;;12.40;98.60;;;;;;5031726;28;20111;-69
2021/09/17 04:05:18;;;;;;;15.10;10.02;;;12.40;98.60;;;;;;5032008;28;20029;-69
2021/09/17 04:07:43;;;;;;;11.15;8.05;;;12.50;98.60;;;;;;5031762;28;20037;-71
2021/09/17 04:10:12;;;;;;;14.25;8.77;;;12.50;98.60;;;;;;5032132;28;20094;-68
2021/09/17 04:12:37;;;;;;;16.70;10.50;;;12.50;98.60;;;;;;5030295;28;20048;-69
2021/09/17 04:15:03;;;;;;;13.50;9.48;;;12.50;98.50;;;;;;5031628;28;20931;-69
2021/09/17 04:17:29;;;;;;;16.65;10.10;;;12.50;98.60;;;;;;5031547;28;20044;-69
2021/09/17 04:19:55;;;;;;;17.70;10.65;;;12.60;98.60;;;;;;5031821;28;20466;-69
2021/09/17 04:22:20;;;;;;;13.50;9.85;;;12.60;98.50;;;;;;5031741;28;20500;-70
2021/09/17 04:24:46;;;;;;;18.33;10.35;;;12.60;98.50;;;;;;5031366;28;20014;-71
2021/09/17 04:27:11;;;;;;;16.17;9.65;;;12.60;98.50;;;;;;5025064;28;20107;-68
2021/09/17 04:29:37;;;;;;;14.80;9.65;;;12.60;98.50;;;;;;5019826;28;20026;-69
2021/09/17 04:32:03;;;;;;;13.82;9.93;;;12.60;98.50;;;;;;5011858;28;20396;-69
2021/09/17 04:34:29;;;;;;;14.90;10.13;;;12.60;98.50;;;;;;5011219;28;20037;-69
2021/09/17 04:36:55;;;;;;;15.75;10.23;;;12.70;98.50;;;;;;5012047;28;20064;-69
2021/09/17 04:39:20;;;;;;;13.75;10.38;;;12.70;98.50;;;;;;5014269;28;20113;-70
2021/09/17 04:41:46;;;;;;;15.88;10.45;;;12.70;98.50;;;;;;5031553;28;20092;-71
2021/09/17 04:44:12;;;;;;;12.63;9.23;;;12.70;98.50;;;;;;5030516;28;20084;-69
2021/09/17 04:46:38;;;;;;;15.75;9.55;;;12.60;98.50;;;;;;5031488;28;20025;-68
2021/09/17 04:49:03;;;;;;;12.65;8.98;;;12.60;98.50;;;;;;5031236;28;20068;-69
2021/09/17 04:51:30;;;;;;;12.13;8.60;;;12.60;98.50;;;;;;5031144;28;20040;-68
2021/09/17 04:53:56;;;;;;;12.20;8.90;;;12.60;98.50;;;;;;5030846;28;20022;-69
2021/09/17 04:56:22;;;;;;;11.10;8.20;;;12.60;98.50;;;;;;5031296;28;20033;-69
2021/09/17 04:58:47;;;;;;;10.98;7.47;;;12.60;98.50;;;;;;5030605;28;20449;-69
2021/09/17 05:01:13;;;;;;;15.10;9.43;;;12.70;98.50;;;;;;5031141;28;20038;-70
2021/09/17 05:03:39;;;;;;;12.18;8.60;;;12.70;98.50;;;;;;5012943;28;20022;-70
2021/09/17 05:06:04;;;;;;;11.05;8.15;;;12.70;98.50;;;;;;5030624;28;20518;-68
2021/09/17 05:08:30;;;;;;;13.32;9.20;;;12.70;98.60;;;;;;5031091;28;20026;-68
2021/09/17 05:10:55;;;;;;;11.38;7.68;;;12.70;98.50;;;;;;5030745;28;20022;-68
2021/09/17 05:13:21;;;;;;;10.85;7.20;;;12.70;98.50;;;;;;5030370;28;20032;-69
2021/09/17 05:15:47;;;;;;;10.15;7.40;;;12.70;98.50;;;;;;5030614;28;20030;-68
2021/09/17 05:18:13;;;;;;;10.98;7.63;;;12.70;98.60;;;;;;5013234;28;20029;-68
2021/09/17 05:20:38;;;;;;;13.77;9.65;;;12.70;98.60;;;;;;5030615;28;20111;-69
2021/09/17 05:23:05;;;;;;;14.90;9.20;;;12.70;98.50;;;;;;5030170;28;20032;-68
2021/09/17 05:25:30;;;;;;;12.25;9.32;;;12.70;98.30;;;;;;5028865;28;20018;-68
2021/09/17 05:27:56;;;;;;;11.95;8.75;;;12.60;98.50;;;;;;5016450;28;20192;-69
2021/09/17 05:30:23;;;;;;;13.23;9.82;;;12.60;98.50;;;;;;5024186;28;20030;-68
2021/09/17 05:32:49;;;;;;;14.18;10.00;;;12.60;98.50;;;;;;5028438;28;20021;-69
2021/09/17 05:35:14;;;;;;;16.33;10.15;;;12.60;98.50;;;;;;5014839;28;20108;-68
2021/09/17 05:37:40;;;;;;;12.77;9.65;;;12.60;98.50;;;;;;5021948;28;20092;-71
2021/09/17 05:40:06;;;;;;;12.10;8.98;;;12.60;98.50;;;;;;5030230;28;20087;-68
2021/09/17 05:42:32;;;;;;;16.08;9.88;;;12.60;98.50;;;;;;4995924;28;20097;-70
2021/09/17 05:44:57;;;;;;;15.73;9.88;;;12.60;98.50;;;;;;5010768;28;20485;-69
2021/09/17 05:47:23;;;;;;;13.75;9.80;;;12.60;98.50;;;;;;5010697;28;20026;-69
2021/09/17 05:49:49;;;;;;;11.82;9.27;;;12.50;98.40;;;;;;4999392;28;20053;-69
2021/09/17 05:52:14;;;;;;;11.15;8.50;;;12.50;98.40;;;;;;5030522;28;20021;-71
2021/09/17 05:54:40;;;;;;;13.73;9.18;;;12.50;98.50;;;;;;5029953;28;20030;-69
2021/09/17 05:57:06;;;;;;;11.55;8.85;;;12.50;98.40;;;;;;5030345;28;20489;-69
2021/09/17 05:59:32;;;;;;;14.75;11.05;;;12.50;98.50;;;;;;5030332;28;20044;-69
2021/09/17 06:01:57;;;;;;;12.77;9.18;;;12.50;98.50;;;;;;5030422;28;20022;-69
2021/09/17 06:04:23;;;;;;;13.07;7.70;;;12.50;98.50;;;;;;5029945;28;20029;-69
2021/09/17 06:06:48;;;;;;;13.63;8.48;;;12.50;98.60;;;;;;5018564;28;20045;-69
2021/09/17 06:09:14;;;;;;;10.93;7.90;;;12.50;98.60;;;;;;5030402;28;20506;-69
2021/09/17 06:11:40;;;;;;;10.38;8.55;;;12.60;98.60;;;;;;5030385;28;20025;-69
2021/09/17 06:14:05;;;;;;;13.13;8.80;;;12.60;98.60;;;;;;5029799;28;20118;-70
2021/09/17 06:16:33;;;;;;;13.05;9.05;;;12.60;98.60;;;;;;5029999;28;20550;-70
2021/09/17 06:19:02;;;;;;;12.10;8.25;;;12.60;98.60;;;;;;5029615;28;20103;-68
2021/09/17 06:21:32;;;;;;;12.30;9.00;;;12.70;98.60;;;;;;5030145;28;20021;-69
2021/09/17 06:23:59;;;;;;;15.10;8.95;;;12.70;98.60;;;;;;5029909;28;20104;-69
2021/09/17 06:26:24;;;;;;;21.15;8.43;;;12.70;98.60;;;;;;5028895;28;20100;-69
2021/09/17 06:28:50;;;;;;;11.75;8.23;;;12.70;98.60;;;;;;5021293;28;20064;-69
2021/09/17 06:31:16;;;;;;;9.73;8.15;;;12.80;98.70;;;;;;5030383;28;20381;-70
2021/09/17 06:33:41;;;;;;;10.55;8.15;;;12.80;98.70;;;;;;5017618;28;20048;-71
2021/09/17 06:36:07;;;;;;;12.95;8.75;;;12.80;98.70;;;;;;5012158;28;20121;-69
2021/09/17 06:38:33;;;;;;;12.25;8.35;;;12.90;98.70;;;;;;5014361;28;20080;-69
2021/09/17 06:40:59;;;;;;;11.65;7.93;;;12.90;98.70;;;;;;5033457;28;20425;-68
2021/09/17 06:43:24;;;;;;;15.73;8.68;;;13.00;98.70;;;;;;5033816;28;20072;-69
2021/09/17 06:45:50;;;;;;;10.55;8.18;;;13.00;98.70;;;;;;5033712;28;20116;-70
2021/09/17 06:48:17;;;;;;;13.50;8.65;;;13.00;98.70;;;;;;5034010;28;20025;-68
2021/09/17 06:50:43;;;;;;;10.77;8.15;;;13.00;98.60;;;;;;5033358;28;20021;-68
2021/09/17 06:53:08;;;;;;;12.95;8.35;;;13.00;98.60;;;;;;5033370;28;20032;-69
2021/09/17 06:55:34;;;;;;;14.40;8.95;;;13.10;98.60;;;;;;5033559;28;20036;-69
2021/09/17 06:58:03;;;;;;;12.18;8.50;;;13.10;98.80;;;;;;5033748;28;20382;-69
2021/09/17 07:00:33;;;;;;;10.38;7.43;;;13.10;98.60;;;;;;5033285;28;20330;-68
2021/09/17 07:02:59;;;;;;;10.77;9.02;;;13.20;98.70;;;;;;5033250;28;20021;-69
2021/09/17 07:05:26;;;;;;;11.98;7.53;;;13.30;98.70;;;;;;5033229;28;20129;-70
2021/09/17 07:07:57;;;;;;;11.25;8.07;;;13.30;98.70;;;;;;5033418;28;20120;-68
2021/09/17 07:10:23;;;;;;;13.27;8.02;;;13.40;98.70;;;;;;5033237;28;20033;-68
2021/09/17 07:12:49;;;;;;;11.25;7.60;;;13.50;98.50;;;;;;5033026;28;20426;-69
2021/09/17 07:15:16;;;;;;;8.65;7.75;;;13.60;98.50;;;;;;5033266;28;20132;-68
2021/09/17 07:17:42;;;;;;;9.63;7.55;;;13.60;98.50;;;;;;5033162;28;20131;-68
2021/09/17 07:20:08;;;;;;;12.00;8.38;;;13.70;98.60;;;;;;5032952;28;20043;-69
2021/09/17 07:22:34;;;;;;;11.45;8.80;;;13.70;98.50;;;;;;5032472;28;20026;-71
2021/09/17 07:24:59;;;;;;;14.52;10.27;;;13.80;98.40;;;;;;5033129;28;20488;-68
2021/09/17 07:27:25;;;;;;;42.30;27.10;;;13.80;98.40;;;;;;5024668;28;20022;-70
2021/09/17 07:29:51;;;;;;;15.05;10.52;;;13.80;98.50;;;;;;5032815;28;20065;-69
2021/09/17 07:32:16;;;;;;;11.95;9.57;;;13.90;98.50;;;;;;5032951;28;20053;-68
2021/09/17 07:34:42;;;;;;;13.52;10.45;;;13.90;98.40;;;;;;5011215;28;20025;-69
2021/09/17 07:37:08;;;;;;;10.15;8.50;;;14.20;98.30;;;;;;5016762;28;20087;-68
2021/09/17 07:39:33;;;;;;;17.23;8.82;;;14.20;98.30;;;;;;5013039;28;20057;-70
2021/09/17 07:41:59;;;;;;;13.43;9.98;;;14.30;98.40;;;;;;5012955;28;20449;-69
2021/09/17 07:44:25;;;;;;;11.55;9.68;;;14.30;98.30;;;;;;5015514;28;20107;-68
2021/09/17 07:46:50;;;;;;;10.75;9.45;;;14.40;98.30;;;;;;5032353;28;20426;-69
2021/09/17 07:49:16;;;;;;;14.82;10.43;;;14.40;98.20;;;;;;5032723;28;20029;-70
2021/09/17 07:51:41;;;;;;;14.95;10.70;;;14.40;98.10;;;;;;5032203;28;20437;-71
2021/09/17 07:54:07;;;;;;;13.55;10.95;;;14.40;98.20;;;;;;5032009;28;20017;-68
2021/09/17 07:56:32;;;;;;;14.48;10.60;;;14.50;98.10;;;;;;5032555;28;20112;-69
2021/09/17 07:58:58;;;;;;;14.77;11.05;;;14.50;98.10;;;;;;5032108;28;20041;-69
2021/09/17 08:01:23;;;;;;;14.50;11.15;;;14.50;98.10;;;;;;5031800;28;20030;-71
2021/09/17 08:03:49;;;;;;;19.58;11.05;;;14.60;98.10;;;;;;5031897;28;20061;-69
2021/09/17 08:06:15;;;;;;;15.80;11.75;;;14.60;98.20;;;;;;5032036;28;20026;-69
2021/09/17 08:08:41;;;;;;;11.10;9.05;;;14.70;98.00;;;;;;5032218;28;20397;-69
2021/09/17 08:11:07;;;;;;;14.50;10.38;;;14.80;98.00;;;;;;5032034;28;20041;-70
2021/09/17 08:13:32;;;;;;;13.15;9.77;;;14.90;97.90;;;;;;5031617;28;20025;-69
2021/09/17 08:15:58;;;;;;;12.55;9.27;;;14.90;97.80;;;;;;5032287;28;20367;-71
2021/09/17 08:18:25;;;;;;;11.77;9.40;;;15.00;97.90;;;;;;5032044;28;20118;-69
2021/09/17 08:20:53;;;;;;;18.52;10.18;;;15.00;97.80;;;;;;5031587;28;20021;-69
2021/09/17 08:23:20;;;;;;;13.10;9.77;;;15.10;97.60;;;;;;5031722;28;20024;-69
2021/09/17 08:25:55;;;;;;;12.05;9.73;;;15.10;97.60;;;;;;5031914;28;20045;-69
2021/09/17 08:28:25;;;;;;;17.83;11.73;;;15.20;97.60;;;;;;5023549;28;20018;-69
2021/09/17 08:30:52;;;;;;;15.90;11.43;;;15.30;97.60;;;;;;5018101;28;20446;-69
2021/09/17 08:33:18;;;;;;;16.30;10.73;;;15.30;97.50;;;;;;5015090;28;20093;-69
2021/09/17 08:35:43;;;;;;;14.93;10.23;;;15.40;97.30;;;;;;5027183;28;20127;-70
2021/09/17 08:38:09;;;;;;;13.68;10.10;;;15.40;97.30;;;;;;5012006;28;20486;-69
2021/09/17 08:40:35;;;;;;;11.30;8.82;;;15.50;97.30;;;;;;5020700;28;20107;-69
2021/09/17 08:43:01;;;;;;;12.35;9.05;;;15.60;97.30;;;;;;5031367;28;20061;-71
2021/09/17 08:45:28;;;;;;;16.98;9.82;;;15.80;97.30;;;;;;5095511;22;20060;-67
2021/09/17 08:47:54;;;;;;;9.90;7.70;;;15.90;97.20;;;;;;5031395;28;20407;-67
2021/09/17 08:50:21;;;;;;;9.18;7.63;;;16.10;97.10;;;;;;5030388;28;20120;-67
2021/09/17 08:52:47;;;;;;;11.93;8.73;;;16.20;97.10;;;;;;5031022;28;20037;-67
2021/09/17 08:55:13;;;;;;;13.27;9.48;;;16.40;97.00;;;;;;5030309;28;20113;-67
2021/09/17 08:57:42;;;;;;;12.25;7.53;;;16.60;96.80;;;;;;5031229;28;20083;-67
2021/09/17 09:00:31;;;;;;;10.18;8.27;;;16.70;96.50;;;;;;5026331;28;20032;-68
2021/09/17 09:03:00;;;;;;;12.95;8.13;;;16.80;96.30;;;;;;5010926;28;20018;-68
2021/09/17 09:05:29;;;;;;;10.25;7.47;;;16.90;96.30;;;;;;5011158;28;20026;-67
2021/09/17 09:07:54;;;;;;;11.90;8.15;;;16.90;96.20;;;;;;5011197;28;20052;-67
2021/09/17 09:10:21;;;;;;;10.30;7.35;;;17.00;96.20;;;;;;5017298;28;20025;-67
2021/09/17 09:12:49;;;;;;;11.15;8.85;;;17.00;96.00;;;;;;5030184;28;20350;-67
2021/09/17 09:15:25;;;;;;;10.68;7.97;;;17.10;96.00;;;;;;5030686;28;20025;-67
2021/09/17 09:18:04;;;;;;;11.10;7.70;;;17.20;95.70;;;;;;5030770;28;20053;-67
2021/09/17 09:20:32;;;;;;;8.45;6.47;;;17.30;95.80;;;;;;5029971;28;20453;-67
2021/09/17 09:23:21;;;;;;;11.80;8.00;;;17.50;95.80;;;;;;5030291;28;20060;-68
2021/09/17 09:26:01;;;;;;;9.98;7.25;;;17.60;95.10;;;;;;5030883;28;20627;-68
2021/09/17 09:28:33;;;;;;;8.10;7.20;;;17.60;94.80;;;;;;5030056;28;20026;-67
2021/09/17 09:31:08;;;;;;;7.97;7.18;;;17.70;94.80;;;;;;5030054;28;20033;-68
2021/09/17 09:33:39;;;;;;;8.40;6.30;;;17.80;94.90;;;;;;5024079;28;20108;-68
2021/09/17 09:36:06;;;;;;;11.45;7.57;;;18.00;95.10;;;;;;4992941;28;20025;-68
2021/09/17 09:38:51;;;;;;;9.27;6.78;;;18.20;94.80;;;;;;5010668;28;20037;-68
2021/09/17 09:41:21;;;;;;;8.15;5.80;;;18.30;94.60;;;;;;5023037;28;20026;-67
2021/09/17 09:43:59;;;;;;;6.97;5.30;;;18.50;94.60;;;;;;5029909;28;20642;-67
2021/09/17 09:46:30;;;;;;;6.72;4.60;;;18.70;94.60;;;;;;5030411;28;20068;-67
2021/09/17 09:48:58;;;;;;;6.88;5.28;;;18.80;94.40;;;;;;5030231;28;20097;-67
2021/09/17 09:51:27;;;;;;;8.50;4.28;;;18.80;94.10;;;;;;5019172;28;20520;-68
2021/09/17 09:53:53;;;;;;;5.70;5.13;;;18.80;93.80;;;;;;5010131;28;20072;-67
2021/09/17 09:56:20;;;;;;;6.00;4.45;;;18.70;93.70;;;;;;5010658;28;20026;-68
2021/09/17 09:58:49;;;;;;;9.27;5.72;;;18.60;93.60;;;;;;5010387;28;20034;-67
2021/09/17 10:01:18;;;;;;;8.68;5.63;;;18.60;93.10;;;;;;5019194;28;20502;-67
2021/09/17 10:03:45;;;;;;;5.93;4.82;;;18.40;92.80;;;;;;5029719;28;20099;-67
2021/09/17 10:06:15;;;;;;;9.98;5.30;;;18.10;92.50;;;;;;5030178;28;20462;-67
2021/09/17 10:08:41;;;;;;;5.10;4.40;;;17.80;92.50;;;;;;5012488;28;20032;-67
2021/09/17 10:11:07;;;;;;;5.28;4.68;;;17.70;92.70;;;;;;5026491;28;20105;-67
2021/09/17 10:13:33;;;;;;;10.07;4.43;;;17.70;93.10;;;;;;4996192;28;20091;-67
2021/09/17 10:15:59;;;;;;;6.78;4.40;;;17.80;93.50;;;;;;5014353;28;20033;-67
2021/09/17 10:18:25;;;;;;;5.53;4.03;;;18.20;93.60;;;;;;5014268;28;20030;-67
2021/09/17 10:20:51;;;;;;;5.40;4.60;;;18.40;93.40;;;;;;5014551;28;20355;-67
2021/09/17 10:23:28;;;;;;;5.60;4.30;;;18.60;93.30;;;;;;4996236;28;20033;-67
2021/09/17 10:26:09;;;;;;;5.90;4.32;;;18.80;92.80;;;;;;4996326;28;20022;-67
2021/09/17 10:29:03;;;;;;;5.65;4.10;;;18.80;92.50;;;;;;4996269;28;20022;-67
2021/09/17 10:31:44;;;;;;;7.82;4.20;;;18.80;92.10;;;;;;5023204;28;20056;-67
2021/09/17 10:34:28;;;;;;;4.70;3.60;;;18.80;92.30;;;;;;5021958;28;20053;-67
2021/09/17 10:36:53;;;;;;;6.45;4.20;;;18.90;92.20;;;;;;5009761;28;20500;-67
2021/09/17 10:39:19;;;;;;;5.20;3.40;;;18.90;92.30;;;;;;5033909;28;20104;-67
2021/09/17 10:42:08;;;;;;;4.70;4.00;;;18.90;92.30;;;;;;5021976;28;20338;-67
2021/09/17 10:45:02;;;;;;;5.60;4.43;;;18.90;91.90;;;;;;4997393;28;20112;-67
2021/09/17 10:47:56;;;;;;;8.70;5.57;;;18.80;91.90;;;;;;5031755;28;20029;-67
2021/09/17 10:50:42;;;;;;;5.18;3.85;;;18.70;92.00;;;;;;5031741;28;20073;-67
2021/09/17 10:53:09;;;;;;;4.30;3.92;;;18.70;92.00;;;;;;5032201;28;20038;-67
2021/09/17 10:55:43;;;;;;;5.40;3.40;;;18.70;92.20;;;;;;5015688;28;20026;-67
2021/09/17 10:58:24;;;;;;;4.22;3.38;;;18.70;92.00;;;;;;5033151;28;20022;-67
2021/09/17 11:00:54;;;;;;;4.40;3.10;;;18.70;91.90;;;;;;5032085;28;20112;-67
2021/09/17 11:03:38;;;;;;;4.25;3.10;;;18.70;92.10;;;;;;5031264;28;20063;-67
2021/09/17 11:08:46;;;;;;;5.25;3.63;;;18.60;91.80;;;;;;5030824;28;20493;-68
2021/09/17 11:11:31;;;;;;;3.97;3.13;;;18.60;91.80;;;;;;5015613;28;20036;-67
2021/09/17 11:14:02;;;;;;;3.45;3.15;;;18.50;91.90;;;;;;5031495;28;20129;-67
2021/09/17 11:16:29;;;;;;;3.28;2.97;;;18.40;91.80;;;;;;5015806;28;20080;-67
2021/09/17 11:19:00;;;;;;;2.53;2.20;;;18.40;92.00;;;;;;5013089;28;20084;-67
2021/09/17 11:21:30;;;;;;;2.80;2.38;;;18.40;91.80;;;;;;5020051;28;20033;-67
2021/09/17 11:23:57;;;;;;;3.90;2.63;;;18.40;91.70;;;;;;5014636;28;20486;-67
2021/09/17 11:26:25;;;;;;;3.92;2.83;;;18.30;91.40;;;;;;5013714;28;20103;-67
2021/09/17 11:28:58;;;;;;;4.43;3.08;;;18.30;91.20;;;;;;5018013;28;20048;-67
2021/09/17 11:31:26;;;;;;;7.63;5.60;;;18.20;91.30;;;;;;5032076;28;20029;-67
2021/09/17 11:33:58;;;;;;;3.92;3.05;;;18.20;91.50;;;;;;5023809;28;20025;-67
2021/09/17 11:36:46;;;;;;;3.17;2.88;;;18.20;91.10;;;;;;5012750;28;20479;-67
2021/09/17 11:39:20;;;;;;;3.30;2.10;;;18.20;91.00;;;;;;5013489;28;20026;-67
2021/09/17 11:41:53;;;;;;;1.85;1.70;;;18.10;91.10;;;;;;5031580;28;20465;-67
2021/09/17 11:44:50;;;;;;;4.15;2.00;;;18.10;91.10;;;;;;5031885;28;20025;-67
2021/09/17 11:47:28;;;;;;;2.50;2.30;;;18.00;91.00;;;;;;5020185;28;20036;-67
2021/09/17 11:49:55;;;;;;;5.10;2.72;;;18.10;91.30;;;;;;5032360;28;20115;-67
2021/09/17 11:52:21;;;;;;;3.55;2.78;;;18.10;91.50;;;;;;5014534;28;20025;-67
2021/09/17 11:54:58;;;;;;;3.95;2.67;;;18.20;91.40;;;;;;5012177;28;20091;-67
2021/09/17 11:57:29;;;;;;;3.22;2.55;;;18.20;91.20;;;;;;5012510;28;20026;-67
2021/09/17 11:59:55;;;;;;;3.22;2.60;;;18.20;91.40;;;;;;5012271;28;20467;-67
2021/09/17 12:02:22;;;;;;;2.55;2.20;;;18.40;91.40;;;;;;5012528;28;20045;-67
2021/09/17 12:04:51;;;;;;;4.55;2.40;;;18.60;91.40;;;;;;5011841;28;20022;-68
2021/09/17 12:07:17;;;;;;;2.25;2.05;;;18.80;91.20;;;;;;5012401;28;20162;-68
2021/09/17 12:09:43;;;;;;;2.47;2.03;;;19.00;91.30;;;;;;5012736;28;20030;-67
2021/09/17 12:12:10;;;;;;;3.38;2.58;;;19.30;90.90;;;;;;5020247;28;20098;-68
2021/09/17 12:14:37;;;;;;;2.20;1.70;;;19.50;90.60;;;;;;5030539;28;20389;-68
2021/09/17 12:17:07;;;;;;;1.85;1.73;;;19.70;90.40;;;;;;5031725;28;20423;-67
2021/09/17 12:20:12;;;;;;;2.33;1.88;;;20.00;90.20;;;;;;5014088;28;20029;-68
2021/09/17 12:22:40;;;;;;;1.50;1.40;;;20.30;89.80;;;;;;5029646;28;20564;-67
2021/09/17 12:25:11;;;;;;;1.33;1.20;;;20.50;89.50;;;;;;5031899;28;20032;-68
2021/09/17 12:27:43;;;;;;;3.45;1.63;;;20.70;89.10;;;;;;5020159;28;20098;-67
2021/09/17 12:30:10;;;;;;;2.10;1.48;;;20.80;88.50;;;;;;5030386;28;20044;-67
2021/09/17 12:32:38;;;;;;;1.40;1.30;;;20.90;88.40;;;;;;5029955;28;20343;-67
2021/09/17 12:35:05;;;;;;;1.63;1.20;;;20.90;87.90;;;;;;5030992;28;20045;-67
2021/09/17 12:37:31;;;;;;;1.77;1.50;;;21.10;87.10;;;;;;5031566;28;20473;-68
2021/09/17 12:40:09;;;;;;;1.95;1.60;;;21.20;86.70;;;;;;5031586;28;20032;-68
2021/09/17 12:42:35;;;;;;;2.88;1.33;;;21.40;85.50;;;;;;5030945;28;20036;-68
2021/09/17 12:45:02;;;;;;;1.60;1.50;;;21.40;85.00;;;;;;5012647;28;20105;-67
2021/09/17 12:47:28;;;;;;;1.38;1.02;;;21.40;85.00;;;;;;5031183;28;20143;-68